< < Back
Terminal Aerodrome Forecast


Current Version              Previous Versions:   1  2  3  4  5  6  7  8  9  

Terminal Aerodrome Forecast

909
FTUS44 KBMX 231700
TAFTCL
TAF
KTCL 231729Z 2318/2418 35005KT P6SM SKC=



Latest METAR

856
SAUS70 KWBC 240700 RRD
MTRTCL
METAR KTCL 240653Z 00000KT 9SM CLR 11/09 A2994 RMK AO2 SLP137
T01110094


USA.gov is the U.S. government's official web portal to all federal, state and local government web resources and services.